sensor_id;sensor_type;location;lat;lon;timestamp;temperature;humidity
4828;DHT22;2428;48.732;9.148;2022-10-16T00:01:08;15.40;99.90
4828;DHT22;2428;48.732;9.148;2022-10-16T00:03:34;15.40;99.90
4828;DHT22;2428;48.732;9.148;2022-10-16T00:06:01;15.40;99.90
4828;DHT22;2428;48.732;9.148;2022-10-16T00:08:27;15.30;99.90
4828;DHT22;2428;48.732;9.148;2022-10-16T00:10:52;15.30;99.90
4828;DHT22;2428;48.732;9.148;2022-10-16T00:13:18;15.30;99.90
4828;DHT22;2428;48.732;9.148;2022-10-16T00:15:45;15.30;99.90
4828;DHT22;2428;48.732;9.148;2022-10-16T00:18:12;15.30;99.90
4828;DHT22;2428;48.732;9.148;2022-10-16T00:20:39;15.30;99.90
4828;DHT22;2428;48.732;9.148;2022-10-16T00:23:05;15.20;99.90
4828;DHT22;2428;48.732;9.148;2022-10-16T00:25:31;15.20;99.90
4828;DHT22;2428;48.732;9.148;2022-10-16T00:27:59;15.20;99.90
4828;DHT22;2428;48.732;9.148;2022-10-16T00:30:25;15.20;99.90
4828;DHT22;2428;48.732;9.148;2022-10-16T00:32:53;15.20;99.90
4828;DHT22;2428;48.732;9.148;2022-10-16T00:35:18;15.10;99.90
4828;DHT22;2428;48.732;9.148;2022-10-16T00:37:44;15.00;99.90
4828;DHT22;2428;48.732;9.148;2022-10-16T00:40:10;15.10;99.90
4828;DHT22;2428;48.732;9.148;2022-10-16T00:42:35;15.00;99.90
4828;DHT22;2428;48.732;9.148;2022-10-16T00:45:01;15.00;99.90
4828;DHT22;2428;48.732;9.148;2022-10-16T00:47:42;15.00;99.90
4828;DHT22;2428;48.732;9.148;2022-10-16T00:52:50;15.00;99.90
4828;DHT22;2428;48.732;9.148;2022-10-16T00:55:17;15.00;99.90
4828;DHT22;2428;48.732;9.148;2022-10-16T00:57:44;15.00;99.90
4828;DHT22;2428;48.732;9.148;2022-10-16T01:00:13;15.00;99.90
4828;DHT22;2428;48.732;9.148;2022-10-16T01:02:39;15.00;99.90
4828;DHT22;2428;48.732;9.148;2022-10-16T01:05:05;15.00;99.90
4828;DHT22;2428;48.732;9.148;2022-10-16T01:07:58;15.00;99.90
4828;DHT22;2428;48.732;9.148;2022-10-16T01:10:39;14.90;99.90
4828;DHT22;2428;48.732;9.148;2022-10-16T01:13:08;14.90;99.90
4828;DHT22;2428;48.732;9.148;2022-10-16T01:18:32;14.90;99.90
4828;DHT22;2428;48.732;9.148;2022-10-16T01:28:53;14.90;99.90
4828;DHT22;2428;48.732;9.148;2022-10-16T01:31:25;14.80;99.90
4828;DHT22;2428;48.732;9.148;2022-10-16T01:34:15;14.80;99.90
4828;DHT22;2428;48.732;9.148;2022-10-16T01:36:47;14.80;99.90
4828;DHT22;2428;48.732;9.148;2022-10-16T01:39:15;14.80;99.90
4828;DHT22;2428;48.732;9.148;2022-10-16T01:41:47;14.80;99.90
4828;DHT22;2428;48.732;9.148;2022-10-16T01:44:24;14.90;99.90
4828;DHT22;2428;48.732;9.148;2022-10-16T01:46:52;14.90;99.90
4828;DHT22;2428;48.732;9.148;2022-10-16T01:49:21;14.90;99.90
4828;DHT22;2428;48.732;9.148;2022-10-16T01:51:50;14.90;99.90
4828;DHT22;2428;48.732;9.148;2022-10-16T01:54:19;14.90;99.90
4828;DHT22;2428;48.732;9.148;2022-10-16T01:56:46;14.90;99.90
4828;DHT22;2428;48.732;9.148;2022-10-16T01:59:16;14.90;99.90
4828;DHT22;2428;48.732;9.148;2022-10-16T02:01:47;14.90;99.90
4828;DHT22;2428;48.732;9.148;2022-10-16T02:04:28;14.90;99.90
4828;DHT22;2428;48.732;9.148;2022-10-16T02:06:54;15.00;99.90
4828;DHT22;2428;48.732;9.148;2022-10-16T02:09:20;15.00;99.90
4828;DHT22;2428;48.732;9.148;2022-10-16T02:11:46;15.00;99.90
4828;DHT22;2428;48.732;9.148;2022-10-16T02:14:12;15.00;99.90
4828;DHT22;2428;48.732;9.148;2022-10-16T02:16:43;15.00;99.90
4828;DHT22;2428;48.732;9.148;2022-10-16T02:19:09;15.10;99.90
4828;DHT22;2428;48.732;9.148;2022-10-16T02:21:43;15.00;99.90
4828;DHT22;2428;48.732;9.148;2022-10-16T02:29:29;15.00;99.90
4828;DHT22;2428;48.732;9.148;2022-10-16T02:31:59;15.00;99.90
4828;DHT22;2428;48.732;9.148;2022-10-16T02:34:27;15.00;99.90
4828;DHT22;2428;48.732;9.148;2022-10-16T02:36:54;15.00;99.90
4828;DHT22;2428;48.732;9.148;2022-10-16T02:39:21;14.90;99.90
4828;DHT22;2428;48.732;9.148;2022-10-16T02:41:47;15.00;99.90
4828;DHT22;2428;48.732;9.148;2022-10-16T02:44:13;15.00;99.90
4828;DHT22;2428;48.732;9.148;2022-10-16T02:46:39;15.00;99.90
4828;DHT22;2428;48.732;9.148;2022-10-16T02:49:04;15.00;99.90
4828;DHT22;2428;48.732;9.148;2022-10-16T02:51:30;15.00;99.90
4828;DHT22;2428;48.732;9.148;2022-10-16T02:53:55;15.10;99.90
4828;DHT22;2428;48.732;9.148;2022-10-16T02:56:21;15.10;99.90
4828;DHT22;2428;48.732;9.148;2022-10-16T02:58:47;15.00;99.90
4828;DHT22;2428;48.732;9.148;2022-10-16T03:01:12;15.00;99.90
4828;DHT22;2428;48.732;9.148;2022-10-16T03:03:39;15.00;99.90
4828;DHT22;2428;48.732;9.148;2022-10-16T03:06:05;14.90;99.90
4828;DHT22;2428;48.732;9.148;2022-10-16T03:08:31;14.90;99.90
4828;DHT22;2428;48.732;9.148;2022-10-16T03:10:57;14.90;99.90
4828;DHT22;2428;48.732;9.148;2022-10-16T03:13:22;14.90;99.90
4828;DHT22;2428;48.732;9.148;2022-10-16T03:15:48;14.90;99.90
4828;DHT22;2428;48.732;9.148;2022-10-16T03:18:14;14.90;99.90
4828;DHT22;2428;48.732;9.148;2022-10-16T03:20:39;14.80;99.90
4828;DHT22;2428;48.732;9.148;2022-10-16T03:23:05;14.80;99.90
4828;DHT22;2428;48.732;9.148;2022-10-16T03:25:33;14.80;99.90
4828;DHT22;2428;48.732;9.148;2022-10-16T03:27:59;14.80;99.90
4828;DHT22;2428;48.732;9.148;2022-10-16T03:30:24;14.80;99.90
4828;DHT22;2428;48.732;9.148;2022-10-16T03:32:50;14.70;99.90
4828;DHT22;2428;48.732;9.148;2022-10-16T03:35:22;14.80;99.90
4828;DHT22;2428;48.732;9.148;2022-10-16T03:37:48;14.70;99.90
4828;DHT22;2428;48.732;9.148;2022-10-16T03:40:14;14.70;99.90
4828;DHT22;2428;48.732;9.148;2022-10-16T03:42:39;14.70;99.90
4828;DHT22;2428;48.732;9.148;2022-10-16T03:45:05;14.70;99.90
4828;DHT22;2428;48.732;9.148;2022-10-16T03:47:31;14.80;99.90
4828;DHT22;2428;48.732;9.148;2022-10-16T03:49:58;14.70;99.90
4828;DHT22;2428;48.732;9.148;2022-10-16T03:52:24;14.70;99.90
4828;DHT22;2428;48.732;9.148;2022-10-16T03:54:50;14.70;99.90
4828;DHT22;2428;48.732;9.148;2022-10-16T03:57:16;14.70;99.90
4828;DHT22;2428;48.732;9.148;2022-10-16T03:59:41;14.70;99.90
4828;DHT22;2428;48.732;9.148;2022-10-16T04:02:07;14.70;99.90
4828;DHT22;2428;48.732;9.148;2022-10-16T04:04:33;14.70;99.90
4828;DHT22;2428;48.732;9.148;2022-10-16T04:06:59;14.70;99.90
4828;DHT22;2428;48.732;9.148;2022-10-16T04:09:25;14.70;99.90
4828;DHT22;2428;48.732;9.148;2022-10-16T04:11:50;14.70;99.90
4828;DHT22;2428;48.732;9.148;2022-10-16T04:14:16;14.70;99.90
4828;DHT22;2428;48.732;9.148;2022-10-16T04:16:42;14.70;99.90
4828;DHT22;2428;48.732;9.148;2022-10-16T04:19:08;14.70;99.90
4828;DHT22;2428;48.732;9.148;2022-10-16T04:21:34;14.80;99.90
4828;DHT22;2428;48.732;9.148;2022-10-16T04:24:00;14.70;99.90
4828;DHT22;2428;48.732;9.148;2022-10-16T04:26:25;14.70;99.90
4828;DHT22;2428;48.732;9.148;2022-10-16T04:28:51;14.70;99.90
4828;DHT22;2428;48.732;9.148;2022-10-16T04:31:16;14.70;99.90
4828;DHT22;2428;48.732;9.148;2022-10-16T04:33:43;14.70;99.90
4828;DHT22;2428;48.732;9.148;2022-10-16T04:36:08;14.70;99.90
4828;DHT22;2428;48.732;9.148;2022-10-16T04:38:34;14.70;99.90
4828;DHT22;2428;48.732;9.148;2022-10-16T04:41:00;14.70;99.90
4828;DHT22;2428;48.732;9.148;2022-10-16T04:43:26;14.70;99.90
4828;DHT22;2428;48.732;9.148;2022-10-16T04:45:52;14.70;99.90
4828;DHT22;2428;48.732;9.148;2022-10-16T04:48:18;14.70;99.90
4828;DHT22;2428;48.732;9.148;2022-10-16T04:50:44;14.70;99.90
4828;DHT22;2428;48.732;9.148;2022-10-16T04:53:09;14.70;99.90
4828;DHT22;2428;48.732;9.148;2022-10-16T04:55:35;14.70;99.90
4828;DHT22;2428;48.732;9.148;2022-10-16T04:58:00;14.70;99.90
4828;DHT22;2428;48.732;9.148;2022-10-16T05:00:26;14.80;99.90
4828;DHT22;2428;48.732;9.148;2022-10-16T05:02:51;14.70;99.90
4828;DHT22;2428;48.732;9.148;2022-10-16T05:05:17;14.70;99.90
4828;DHT22;2428;48.732;9.148;2022-10-16T05:07:48;14.70;99.90
4828;DHT22;2428;48.732;9.148;2022-10-16T05:10:15;14.70;99.90
4828;DHT22;2428;48.732;9.148;2022-10-16T05:12:40;14.80;99.90
4828;DHT22;2428;48.732;9.148;2022-10-16T05:15:06;14.70;99.90
4828;DHT22;2428;48.732;9.148;2022-10-16T05:17:32;14.70;99.90
4828;DHT22;2428;48.732;9.148;2022-10-16T05:19:57;14.70;99.90
4828;DHT22;2428;48.732;9.148;2022-10-16T05:22:23;14.70;99.90
4828;DHT22;2428;48.732;9.148;2022-10-16T05:24:48;14.60;99.90
4828;DHT22;2428;48.732;9.148;2022-10-16T05:27:14;14.60;99.90
4828;DHT22;2428;48.732;9.148;2022-10-16T05:29:47;14.60;99.90
4828;DHT22;2428;48.732;9.148;2022-10-16T05:32:17;14.60;99.90
4828;DHT22;2428;48.732;9.148;2022-10-16T05:34:44;14.60;99.90
4828;DHT22;2428;48.732;9.148;2022-10-16T05:37:10;14.60;99.90
4828;DHT22;2428;48.732;9.148;2022-10-16T05:39:37;14.50;99.90
4828;DHT22;2428;48.732;9.148;2022-10-16T05:42:04;14.50;99.90
4828;DHT22;2428;48.732;9.148;2022-10-16T05:44:30;14.50;99.90
4828;DHT22;2428;48.732;9.148;2022-10-16T05:46:55;14.50;99.90
4828;DHT22;2428;48.732;9.148;2022-10-16T05:49:21;14.50;99.90
4828;DHT22;2428;48.732;9.148;2022-10-16T05:51:46;14.60;99.90
4828;DHT22;2428;48.732;9.148;2022-10-16T05:54:12;14.60;99.90
4828;DHT22;2428;48.732;9.148;2022-10-16T05:56:38;14.60;99.90
4828;DHT22;2428;48.732;9.148;2022-10-16T05:59:04;14.60;99.90
4828;DHT22;2428;48.732;9.148;2022-10-16T06:01:30;14.60;99.90
4828;DHT22;2428;48.732;9.148;2022-10-16T06:03:56;14.60;99.90
4828;DHT22;2428;48.732;9.148;2022-10-16T06:06:25;14.70;99.90
4828;DHT22;2428;48.732;9.148;2022-10-16T06:08:54;14.70;99.90
4828;DHT22;2428;48.732;9.148;2022-10-16T06:11:23;14.80;99.90
4828;DHT22;2428;48.732;9.148;2022-10-16T06:13:54;14.80;99.90
4828;DHT22;2428;48.732;9.148;2022-10-16T06:16:22;14.80;99.90
4828;DHT22;2428;48.732;9.148;2022-10-16T06:18:50;14.80;99.90
4828;DHT22;2428;48.732;9.148;2022-10-16T06:21:21;14.80;99.90
4828;DHT22;2428;48.732;9.148;2022-10-16T06:23:47;14.80;99.90
4828;DHT22;2428;48.732;9.148;2022-10-16T06:26:15;14.90;99.90
4828;DHT22;2428;48.732;9.148;2022-10-16T06:28:41;14.90;99.90
4828;DHT22;2428;48.732;9.148;2022-10-16T06:31:08;14.90;99.90
4828;DHT22;2428;48.732;9.148;2022-10-16T06:33:34;14.90;99.90
4828;DHT22;2428;48.732;9.148;2022-10-16T06:36:05;14.90;99.90
4828;DHT22;2428;48.732;9.148;2022-10-16T06:38:31;14.90;99.90
4828;DHT22;2428;48.732;9.148;2022-10-16T06:40:58;15.00;99.90
4828;DHT22;2428;48.732;9.148;2022-10-16T06:43:23;15.00;99.90
4828;DHT22;2428;48.732;9.148;2022-10-16T06:45:56;14.90;99.90
4828;DHT22;2428;48.732;9.148;2022-10-16T06:48:22;15.00;99.90
4828;DHT22;2428;48.732;9.148;2022-10-16T06:51:02;15.00;99.90
4828;DHT22;2428;48.732;9.148;2022-10-16T06:53:30;15.00;99.90
4828;DHT22;2428;48.732;9.148;2022-10-16T06:55:56;15.10;99.90
4828;DHT22;2428;48.732;9.148;2022-10-16T06:58:21;15.10;99.90
4828;DHT22;2428;48.732;9.148;2022-10-16T07:00:48;15.10;99.90
4828;DHT22;2428;48.732;9.148;2022-10-16T07:03:14;15.10;99.90
4828;DHT22;2428;48.732;9.148;2022-10-16T07:05:40;15.10;99.90
4828;DHT22;2428;48.732;9.148;2022-10-16T07:08:06;15.20;99.90
4828;DHT22;2428;48.732;9.148;2022-10-16T07:10:32;15.20;99.90
4828;DHT22;2428;48.732;9.148;2022-10-16T07:12:58;15.30;99.90
4828;DHT22;2428;48.732;9.148;2022-10-16T07:15:25;15.30;99.90
4828;DHT22;2428;48.732;9.148;2022-10-16T07:17:51;15.40;99.90
4828;DHT22;2428;48.732;9.148;2022-10-16T07:20:17;15.40;99.90
4828;DHT22;2428;48.732;9.148;2022-10-16T07:22:42;15.40;99.90
4828;DHT22;2428;48.732;9.148;2022-10-16T07:25:08;15.40;99.90
4828;DHT22;2428;48.732;9.148;2022-10-16T07:27:34;15.50;99.90
4828;DHT22;2428;48.732;9.148;2022-10-16T07:30:00;15.50;99.90
4828;DHT22;2428;48.732;9.148;2022-10-16T07:32:26;15.50;99.90
4828;DHT22;2428;48.732;9.148;2022-10-16T07:34:52;15.50;99.90
4828;DHT22;2428;48.732;9.148;2022-10-16T07:37:18;15.50;99.90
4828;DHT22;2428;48.732;9.148;2022-10-16T07:39:44;15.50;99.90
4828;DHT22;2428;48.732;9.148;2022-10-16T07:42:09;15.50;99.90
4828;DHT22;2428;48.732;9.148;2022-10-16T07:44:35;15.50;99.90
4828;DHT22;2428;48.732;9.148;2022-10-16T07:47:01;15.50;99.90
4828;DHT22;2428;48.732;9.148;2022-10-16T07:49:27;15.60;99.90
4828;DHT22;2428;48.732;9.148;2022-10-16T07:51:52;15.60;99.90
4828;DHT22;2428;48.732;9.148;2022-10-16T07:54:18;15.70;99.90
4828;DHT22;2428;48.732;9.148;2022-10-16T07:56:43;15.70;99.90
4828;DHT22;2428;48.732;9.148;2022-10-16T07:59:09;15.70;99.90
4828;DHT22;2428;48.732;9.148;2022-10-16T08:01:34;15.70;99.90
4828;DHT22;2428;48.732;9.148;2022-10-16T08:04:00;15.80;99.90
4828;DHT22;2428;48.732;9.148;2022-10-16T08:06:26;15.80;99.90
4828;DHT22;2428;48.732;9.148;2022-10-16T08:08:51;15.90;99.90
4828;DHT22;2428;48.732;9.148;2022-10-16T08:11:17;15.90;99.90
4828;DHT22;2428;48.732;9.148;2022-10-16T08:13:43;15.90;99.90
4828;DHT22;2428;48.732;9.148;2022-10-16T08:16:09;16.00;99.90
4828;DHT22;2428;48.732;9.148;2022-10-16T08:18:39;16.10;99.90
4828;DHT22;2428;48.732;9.148;2022-10-16T08:21:05;16.10;99.90
4828;DHT22;2428;48.732;9.148;2022-10-16T08:23:32;16.10;99.90
4828;DHT22;2428;48.732;9.148;2022-10-16T08:26:03;16.30;99.90
4828;DHT22;2428;48.732;9.148;2022-10-16T08:28:29;16.40;99.90
4828;DHT22;2428;48.732;9.148;2022-10-16T08:30:55;16.60;99.90
4828;DHT22;2428;48.732;9.148;2022-10-16T08:33:22;16.70;99.90
4828;DHT22;2428;48.732;9.148;2022-10-16T08:35:54;16.80;99.90
4828;DHT22;2428;48.732;9.148;2022-10-16T08:38:20;17.00;99.90
4828;DHT22;2428;48.732;9.148;2022-10-16T08:40:46;17.00;99.90
4828;DHT22;2428;48.732;9.148;2022-10-16T08:46:19;17.20;99.90
4828;DHT22;2428;48.732;9.148;2022-10-16T08:48:53;17.10;99.90
4828;DHT22;2428;48.732;9.148;2022-10-16T08:51:35;17.10;99.90
4828;DHT22;2428;48.732;9.148;2022-10-16T08:56:30;17.00;99.90
4828;DHT22;2428;48.732;9.148;2022-10-16T08:58:58;17.00;99.90
4828;DHT22;2428;48.732;9.148;2022-10-16T09:01:39;17.00;99.90
4828;DHT22;2428;48.732;9.148;2022-10-16T09:15:41;17.60;99.90
4828;DHT22;2428;48.732;9.148;2022-10-16T09:18:23;17.70;99.90
4828;DHT22;2428;48.732;9.148;2022-10-16T09:21:03;18.00;99.90
4828;DHT22;2428;48.732;9.148;2022-10-16T09:23:33;18.20;99.90
4828;DHT22;2428;48.732;9.148;2022-10-16T09:25:59;18.40;99.90
4828;DHT22;2428;48.732;9.148;2022-10-16T09:28:25;18.50;99.90
4828;DHT22;2428;48.732;9.148;2022-10-16T09:30:51;18.50;99.90
4828;DHT22;2428;48.732;9.148;2022-10-16T09:33:20;18.70;99.90
4828;DHT22;2428;48.732;9.148;2022-10-16T09:35:49;19.00;99.90
4828;DHT22;2428;48.732;9.148;2022-10-16T09:38:33;20.60;99.90
4828;DHT22;2428;48.732;9.148;2022-10-16T09:41:01;22.50;99.90
4828;DHT22;2428;48.732;9.148;2022-10-16T09:43:35;22.80;99.90
4828;DHT22;2428;48.732;9.148;2022-10-16T09:46:21;22.60;99.90
4828;DHT22;2428;48.732;9.148;2022-10-16T09:48:51;22.30;99.90
4828;DHT22;2428;48.732;9.148;2022-10-16T09:53:59;21.50;99.90
4828;DHT22;2428;48.732;9.148;2022-10-16T09:56:28;21.10;99.90
4828;DHT22;2428;48.732;9.148;2022-10-16T09:58:57;20.60;99.90
4828;DHT22;2428;48.732;9.148;2022-10-16T10:01:31;20.50;99.90
4828;DHT22;2428;48.732;9.148;2022-10-16T10:03:57;20.10;99.90
4828;DHT22;2428;48.732;9.148;2022-10-16T10:06:34;20.00;99.90
4828;DHT22;2428;48.732;9.148;2022-10-16T10:10:01;19.70;99.90
4828;DHT22;2428;48.732;9.148;2022-10-16T10:12:02;19.60;99.90
4828;DHT22;2428;48.732;9.148;2022-10-16T10:14:35;19.60;99.90
4828;DHT22;2428;48.732;9.148;2022-10-16T10:17:23;19.60;99.90
4828;DHT22;2428;48.732;9.148;2022-10-16T10:19:57;19.50;99.90
4828;DHT22;2428;48.732;9.148;2022-10-16T10:25:00;19.60;99.90
4828;DHT22;2428;48.732;9.148;2022-10-16T10:32:50;19.80;99.90
4828;DHT22;2428;48.732;9.148;2022-10-16T10:35:30;19.70;99.90
4828;DHT22;2428;48.732;9.148;2022-10-16T10:40:56;19.90;99.90
4828;DHT22;2428;48.732;9.148;2022-10-16T10:46:03;20.10;99.90
4828;DHT22;2428;48.732;9.148;2022-10-16T10:57:02;20.60;99.90
4828;DHT22;2428;48.732;9.148;2022-10-16T11:02:41;20.60;99.90
4828;DHT22;2428;48.732;9.148;2022-10-16T11:05:31;20.50;99.90
4828;DHT22;2428;48.732;9.148;2022-10-16T11:08:02;20.50;99.90
4828;DHT22;2428;48.732;9.148;2022-10-16T11:10:38;20.60;99.90
4828;DHT22;2428;48.732;9.148;2022-10-16T11:13:24;20.70;99.90
4828;DHT22;2428;48.732;9.148;2022-10-16T11:15:55;20.70;99.90
4828;DHT22;2428;48.732;9.148;2022-10-16T11:21:13;20.80;99.90
4828;DHT22;2428;48.732;9.148;2022-10-16T11:26:16;20.90;99.90
4828;DHT22;2428;48.732;9.148;2022-10-16T11:28:50;20.90;99.90
4828;DHT22;2428;48.732;9.148;2022-10-16T11:34:06;21.00;99.90
4828;DHT22;2428;48.732;9.148;2022-10-16T11:39:29;20.70;99.90
4828;DHT22;2428;48.732;9.148;2022-10-16T11:50:18;20.70;99.90
4828;DHT22;2428;48.732;9.148;2022-10-16T11:56:00;20.70;99.90
4828;DHT22;2428;48.732;9.148;2022-10-16T11:58:36;20.90;99.90
4828;DHT22;2428;48.732;9.148;2022-10-16T12:01:31;21.00;99.90
4828;DHT22;2428;48.732;9.148;2022-10-16T12:06:40;21.00;99.90
4828;DHT22;2428;48.732;9.148;2022-10-16T12:09:29;21.00;99.90
4828;DHT22;2428;48.732;9.148;2022-10-16T12:11:56;21.10;99.90
4828;DHT22;2428;48.732;9.148;2022-10-16T12:14:37;21.20;99.90
4828;DHT22;2428;48.732;9.148;2022-10-16T12:20:01;21.30;99.90
4828;DHT22;2428;48.732;9.148;2022-10-16T12:22:31;21.30;99.90
4828;DHT22;2428;48.732;9.148;2022-10-16T12:24:57;21.40;99.90
4828;DHT22;2428;48.732;9.148;2022-10-16T12:27:31;21.50;99.90
4828;DHT22;2428;48.732;9.148;2022-10-16T12:30:00;21.50;99.90
4828;DHT22;2428;48.732;9.148;2022-10-16T12:32:32;21.50;99.90
4828;DHT22;2428;48.732;9.148;2022-10-16T12:35:00;21.60;99.90
4828;DHT22;2428;48.732;9.148;2022-10-16T12:37:33;21.60;99.90
4828;DHT22;2428;48.732;9.148;2022-10-16T12:39:59;21.60;99.90
4828;DHT22;2428;48.732;9.148;2022-10-16T12:42:36;21.60;99.90
4828;DHT22;2428;48.732;9.148;2022-10-16T12:45:34;21.60;99.90
4828;DHT22;2428;48.732;9.148;2022-10-16T12:48:04;21.70;99.90
4828;DHT22;2428;48.732;9.148;2022-10-16T12:50:38;21.60;99.90
4828;DHT22;2428;48.732;9.148;2022-10-16T12:53:24;21.60;99.90
4828;DHT22;2428;48.732;9.148;2022-10-16T12:56:08;21.50;99.90
4828;DHT22;2428;48.732;9.148;2022-10-16T13:07:35;21.20;99.90
4828;DHT22;2428;48.732;9.148;2022-10-16T13:27:15;21.40;99.90
4828;DHT22;2428;48.732;9.148;2022-10-16T13:29:15;21.50;99.90
4828;DHT22;2428;48.732;9.148;2022-10-16T13:31:43;21.40;99.90
4828;DHT22;2428;48.732;9.148;2022-10-16T13:34:21;21.50;99.90
4828;DHT22;2428;48.732;9.148;2022-10-16T13:36:52;21.40;99.90
4828;DHT22;2428;48.732;9.148;2022-10-16T13:39:28;21.50;99.90
4828;DHT22;2428;48.732;9.148;2022-10-16T13:42:04;21.50;99.90
4828;DHT22;2428;48.732;9.148;2022-10-16T13:44:51;21.50;99.90
4828;DHT22;2428;48.732;9.148;2022-10-16T13:50:20;21.50;99.90
4828;DHT22;2428;48.732;9.148;2022-10-16T13:52:45;21.50;99.90
4828;DHT22;2428;48.732;9.148;2022-10-16T13:55:16;21.40;99.90
4828;DHT22;2428;48.732;9.148;2022-10-16T13:57:42;21.40;99.90
4828;DHT22;2428;48.732;9.148;2022-10-16T14:00:23;21.40;99.90
4828;DHT22;2428;48.732;9.148;2022-10-16T14:03:13;21.40;99.90
4828;DHT22;2428;48.732;9.148;2022-10-16T14:05:49;21.30;99.90
4828;DHT22;2428;48.732;9.148;2022-10-16T14:08:16;21.30;99.90
4828;DHT22;2428;48.732;9.148;2022-10-16T14:10:42;21.20;99.90
4828;DHT22;2428;48.732;9.148;2022-10-16T14:13:16;21.20;99.90
4828;DHT22;2428;48.732;9.148;2022-10-16T14:15:47;21.10;99.90
4828;DHT22;2428;48.732;9.148;2022-10-16T14:18:20;21.10;99.90
4828;DHT22;2428;48.732;9.148;2022-10-16T14:20:46;21.10;99.90
4828;DHT22;2428;48.732;9.148;2022-10-16T14:23:28;21.10;99.90
4828;DHT22;2428;48.732;9.148;2022-10-16T14:28:33;21.00;99.90
4828;DHT22;2428;48.732;9.148;2022-10-16T14:31:01;21.00;99.90
4828;DHT22;2428;48.732;9.148;2022-10-16T14:38:24;21.00;99.90
4828;DHT22;2428;48.732;9.148;2022-10-16T14:40:50;21.00;99.90
4828;DHT22;2428;48.732;9.148;2022-10-16T14:43:36;21.00;99.90
4828;DHT22;2428;48.732;9.148;2022-10-16T14:46:05;21.00;99.90
4828;DHT22;2428;48.732;9.148;2022-10-16T14:48:32;21.00;99.90
4828;DHT22;2428;48.732;9.148;2022-10-16T14:50:58;21.00;99.90
4828;DHT22;2428;48.732;9.148;2022-10-16T14:53:24;21.10;99.90
4828;DHT22;2428;48.732;9.148;2022-10-16T14:55:50;21.00;99.90
4828;DHT22;2428;48.732;9.148;2022-10-16T14:58:19;21.00;99.90
4828;DHT22;2428;48.732;9.148;2022-10-16T15:00:46;21.10;99.90
4828;DHT22;2428;48.732;9.148;2022-10-16T15:03:11;21.10;99.90
4828;DHT22;2428;48.732;9.148;2022-10-16T15:05:37;21.10;99.90
4828;DHT22;2428;48.732;9.148;2022-10-16T15:08:03;21.00;99.90
4828;DHT22;2428;48.732;9.148;2022-10-16T15:10:35;21.00;99.90
4828;DHT22;2428;48.732;9.148;2022-10-16T15:13:03;21.00;99.90
4828;DHT22;2428;48.732;9.148;2022-10-16T15:15:44;20.90;99.90
4828;DHT22;2428;48.732;9.148;2022-10-16T15:18:10;20.80;99.90
4828;DHT22;2428;48.732;9.148;2022-10-16T15:20:38;20.70;99.90
4828;DHT22;2428;48.732;9.148;2022-10-16T15:23:08;20.70;99.90
4828;DHT22;2428;48.732;9.148;2022-10-16T15:28:11;20.70;99.90
4828;DHT22;2428;48.732;9.148;2022-10-16T15:30:37;20.70;99.90
4828;DHT22;2428;48.732;9.148;2022-10-16T15:33:04;20.60;99.90
4828;DHT22;2428;48.732;9.148;2022-10-16T15:35:30;20.60;99.90
4828;DHT22;2428;48.732;9.148;2022-10-16T15:37:56;20.50;99.90
4828;DHT22;2428;48.732;9.148;2022-10-16T15:40:22;20.50;99.90
4828;DHT22;2428;48.732;9.148;2022-10-16T15:42:48;20.50;99.90
4828;DHT22;2428;48.732;9.148;2022-10-16T15:45:15;20.40;99.90
4828;DHT22;2428;48.732;9.148;2022-10-16T15:47:41;20.40;99.90
4828;DHT22;2428;48.732;9.148;2022-10-16T15:50:10;20.30;99.90
4828;DHT22;2428;48.732;9.148;2022-10-16T15:52:37;20.20;99.90
4828;DHT22;2428;48.732;9.148;2022-10-16T15:55:08;20.20;99.90
4828;DHT22;2428;48.732;9.148;2022-10-16T15:57:35;20.10;99.90
4828;DHT22;2428;48.732;9.148;2022-10-16T16:00:07;20.10;99.90
4828;DHT22;2428;48.732;9.148;2022-10-16T16:02:33;20.10;99.90
4828;DHT22;2428;48.732;9.148;2022-10-16T16:04:59;20.00;99.90
4828;DHT22;2428;48.732;9.148;2022-10-16T16:07:24;19.90;99.90
4828;DHT22;2428;48.732;9.148;2022-10-16T16:09:50;19.90;99.90
4828;DHT22;2428;48.732;9.148;2022-10-16T16:12:15;19.80;99.90
4828;DHT22;2428;48.732;9.148;2022-10-16T16:14:41;19.70;99.90
4828;DHT22;2428;48.732;9.148;2022-10-16T16:17:07;19.60;99.90
4828;DHT22;2428;48.732;9.148;2022-10-16T16:19:33;19.60;99.90
4828;DHT22;2428;48.732;9.148;2022-10-16T16:21:59;19.50;99.90
4828;DHT22;2428;48.732;9.148;2022-10-16T16:24:24;19.40;99.90
4828;DHT22;2428;48.732;9.148;2022-10-16T16:26:50;19.30;99.90
4828;DHT22;2428;48.732;9.148;2022-10-16T16:29:15;19.30;99.90
4828;DHT22;2428;48.732;9.148;2022-10-16T16:31:42;19.20;99.90
4828;DHT22;2428;48.732;9.148;2022-10-16T16:34:08;19.20;99.90
4828;DHT22;2428;48.732;9.148;2022-10-16T16:36:34;19.10;99.90
4828;DHT22;2428;48.732;9.148;2022-10-16T16:39:00;19.00;99.90
4828;DHT22;2428;48.732;9.148;2022-10-16T16:41:27;19.00;99.90
4828;DHT22;2428;48.732;9.148;2022-10-16T16:43:54;19.00;99.90
4828;DHT22;2428;48.732;9.148;2022-10-16T16:46:21;19.00;99.90
4828;DHT22;2428;48.732;9.148;2022-10-16T16:48:46;18.90;99.90
4828;DHT22;2428;48.732;9.148;2022-10-16T16:51:16;18.90;99.90
4828;DHT22;2428;48.732;9.148;2022-10-16T16:53:45;18.90;99.90
4828;DHT22;2428;48.732;9.148;2022-10-16T16:56:10;18.80;99.90
4828;DHT22;2428;48.732;9.148;2022-10-16T16:58:36;18.90;99.90
4828;DHT22;2428;48.732;9.148;2022-10-16T17:01:02;18.80;99.90
4828;DHT22;2428;48.732;9.148;2022-10-16T17:03:33;18.80;99.90
4828;DHT22;2428;48.732;9.148;2022-10-16T17:06:04;18.80;99.90
4828;DHT22;2428;48.732;9.148;2022-10-16T17:08:30;18.80;99.90
4828;DHT22;2428;48.732;9.148;2022-10-16T17:10:57;18.80;99.90
4828;DHT22;2428;48.732;9.148;2022-10-16T17:13:23;18.70;99.90
4828;DHT22;2428;48.732;9.148;2022-10-16T17:15:50;18.60;99.90
4828;DHT22;2428;48.732;9.148;2022-10-16T17:18:16;18.50;99.90
4828;DHT22;2428;48.732;9.148;2022-10-16T17:20:42;18.40;99.90
4828;DHT22;2428;48.732;9.148;2022-10-16T17:23:09;18.40;99.90
4828;DHT22;2428;48.732;9.148;2022-10-16T17:25:39;18.30;99.90
4828;DHT22;2428;48.732;9.148;2022-10-16T17:28:06;18.20;99.90
4828;DHT22;2428;48.732;9.148;2022-10-16T17:30:32;18.20;99.90
4828;DHT22;2428;48.732;9.148;2022-10-16T17:35:38;18.00;99.90
4828;DHT22;2428;48.732;9.148;2022-10-16T17:38:05;17.90;99.90
4828;DHT22;2428;48.732;9.148;2022-10-16T17:40:31;17.90;99.90
4828;DHT22;2428;48.732;9.148;2022-10-16T17:42:56;17.80;99.90
4828;DHT22;2428;48.732;9.148;2022-10-16T17:45:22;17.80;99.90
4828;DHT22;2428;48.732;9.148;2022-10-16T17:47:47;17.70;99.90
4828;DHT22;2428;48.732;9.148;2022-10-16T17:50:13;17.70;99.90
4828;DHT22;2428;48.732;9.148;2022-10-16T17:52:39;17.60;99.90
4828;DHT22;2428;48.732;9.148;2022-10-16T17:55:05;17.60;99.90
4828;DHT22;2428;48.732;9.148;2022-10-16T17:57:31;17.50;99.90
4828;DHT22;2428;48.732;9.148;2022-10-16T17:59:57;17.50;99.90
4828;DHT22;2428;48.732;9.148;2022-10-16T18:02:22;17.60;99.90
4828;DHT22;2428;48.732;9.148;2022-10-16T18:04:49;17.40;99.90
4828;DHT22;2428;48.732;9.148;2022-10-16T18:07:15;17.40;99.90
4828;DHT22;2428;48.732;9.148;2022-10-16T18:09:41;17.40;99.90
4828;DHT22;2428;48.732;9.148;2022-10-16T18:12:06;17.40;99.90
4828;DHT22;2428;48.732;9.148;2022-10-16T18:14:33;17.40;99.90
4828;DHT22;2428;48.732;9.148;2022-10-16T18:16:59;17.40;99.90
4828;DHT22;2428;48.732;9.148;2022-10-16T18:19:26;17.50;99.90
4828;DHT22;2428;48.732;9.148;2022-10-16T18:21:52;17.50;99.90
4828;DHT22;2428;48.732;9.148;2022-10-16T18:24:20;17.50;99.90